Time;durP1;ratioP1;P1;durP2;ratioP2;P2;SDS_P1;SDS_P2;PMS_P1;PMS_P2;Temp;Humidity;BMP_temperature;BMP_pressure;BME280_temperature;BME280_humidity;BME280_pressure;Samples;Min_cycle;Max_cycle;Signal;HPM_P1;HPM_P2
2021/03/09 00:01:17;;;;;;;44.08;27.80;;;;;;;;;;5108794;28;20071;-63
2021/03/09 00:04:04;;;;;;;43.83;26.70;;;;;;;;;;5108696;28;20093;-63
2021/03/09 00:06:49;;;;;;;54.88;29.63;;;;;;;;;;5108783;28;20055;-63
2021/03/09 00:09:35;;;;;;;53.95;30.55;;;;;;;;;;5109214;28;20054;-63
2021/03/09 00:12:21;;;;;;;66.32;32.03;;;;;;;;;;5094644;28;20130;-63
2021/03/09 00:15:06;;;;;;;60.30;31.05;;;;;;;;;;5094851;28;20052;-64
2021/03/09 00:17:51;;;;;;;56.05;31.23;;;;;;;;;;5095543;28;20056;-64
2021/03/09 00:20:37;;;;;;;55.00;30.40;;;;;;;;;;5094732;28;20520;-64
2021/03/09 00:23:22;;;;;;;49.30;27.02;;;;;;;;;;5094924;28;20044;-63
2021/03/09 00:26:08;;;;;;;52.88;28.80;;;;;;;;;;5094465;28;20128;-63
2021/03/09 00:28:53;;;;;;;43.28;25.67;;;;;;;;;;5104459;28;20052;-66
2021/03/09 00:31:38;;;;;;;53.25;27.98;;;;;;;;;;5115776;28;20067;-65
2021/03/09 00:34:24;;;;;;;48.58;27.15;;;;;;;;;;5103528;28;20071;-65
2021/03/09 00:37:10;;;;;;;54.08;28.73;;;;;;;;;;5095893;28;20393;-65
2021/03/09 00:39:55;;;;;;;54.08;29.17;;;;;;;;;;5110105;28;20149;-65
2021/03/09 00:42:41;;;;;;;55.58;28.63;;;;;;;;;;5115699;28;20070;-65
2021/03/09 00:45:26;;;;;;;55.00;28.90;;;;;;;;;;5115087;28;20086;-66
2021/03/09 00:48:12;;;;;;;62.63;30.77;;;;;;;;;;5115285;28;20044;-65
2021/03/09 00:50:57;;;;;;;63.47;31.15;;;;;;;;;;5115338;28;20468;-64
2021/03/09 00:53:42;;;;;;;63.33;33.03;;;;;;;;;;5114346;28;20035;-64
2021/03/09 00:56:27;;;;;;;63.35;31.60;;;;;;;;;;5114395;28;20063;-64
2021/03/09 00:59:13;;;;;;;67.68;32.00;;;;;;;;;;5111432;28;20050;-64
2021/03/09 01:01:58;;;;;;;65.00;31.27;;;;;;;;;;5094128;28;20048;-64
2021/03/09 01:04:45;;;;;;;65.13;31.90;;;;;;;;;;5093896;28;20127;-64
2021/03/09 01:07:31;;;;;;;56.47;29.92;;;;;;;;;;5094150;28;20044;-64
2021/03/09 01:10:16;;;;;;;64.53;30.73;;;;;;;;;;5102518;28;20040;-64
2021/03/09 01:13:01;;;;;;;58.97;30.00;;;;;;;;;;5114380;28;20055;-64
2021/03/09 01:15:47;;;;;;;57.60;29.52;;;;;;;;;;5113935;28;20055;-64
2021/03/09 01:18:32;;;;;;;57.63;31.05;;;;;;;;;;5114069;28;20516;-64
2021/03/09 01:21:17;;;;;;;55.50;29.25;;;;;;;;;;5113715;28;20047;-64
2021/03/09 01:24:03;;;;;;;52.53;26.58;;;;;;;;;;5113620;28;20131;-64
2021/03/09 01:26:48;;;;;;;53.83;27.00;;;;;;;;;;5113927;28;20044;-64
2021/03/09 01:29:33;;;;;;;47.15;26.52;;;;;;;;;;5113933;28;20043;-64
2021/03/09 01:32:19;;;;;;;51.30;26.52;;;;;;;;;;5112877;28;20047;-64
2021/03/09 01:35:04;;;;;;;50.33;26.00;;;;;;;;;;5113492;28;20059;-64
2021/03/09 01:37:49;;;;;;;45.50;24.75;;;;;;;;;;5113718;28;20043;-65
2021/03/09 01:40:36;;;;;;;48.08;24.95;;;;;;;;;;5111056;28;20055;-64
2021/03/09 01:43:21;;;;;;;48.58;24.80;;;;;;;;;;5093387;28;20068;-64
2021/03/09 01:46:07;;;;;;;41.22;22.33;;;;;;;;;;5092878;28;20048;-64
2021/03/09 01:48:52;;;;;;;56.45;26.20;;;;;;;;;;5093307;28;20052;-64
2021/03/09 01:51:37;;;;;;;50.88;25.38;;;;;;;;;;5128971;27;20050;-64
2021/03/09 01:54:22;;;;;;;47.03;23.65;;;;;;;;;;5141010;27;20043;-64
2021/03/09 01:57:08;;;;;;;39.33;22.15;;;;;;;;;;5113319;28;20039;-64
2021/03/09 01:59:53;;;;;;;41.80;22.55;;;;;;;;;;5141087;27;20066;-64
2021/03/09 02:02:39;;;;;;;44.45;24.20;;;;;;;;;;5126807;27;20041;-64
2021/03/09 02:05:24;;;;;;;41.38;22.25;;;;;;;;;;5120308;27;20071;-64
2021/03/09 02:08:10;;;;;;;43.83;22.83;;;;;;;;;;5092897;28;20058;-64
2021/03/09 02:10:55;;;;;;;49.08;25.15;;;;;;;;;;5092760;28;20085;-65
2021/03/09 02:13:45;;;;;;;43.33;23.38;;;;;;;;;;5112356;28;20048;-64
2021/03/09 02:16:30;;;;;;;42.72;22.95;;;;;;;;;;5140512;27;20574;-64
2021/03/09 02:19:34;;;;;;;44.33;22.35;;;;;;;;;;5140726;27;20485;-64
2021/03/09 02:22:23;;;;;;;44.75;23.40;;;;;;;;;;5112908;28;20039;-64
2021/03/09 02:25:23;;;;;;;40.95;23.65;;;;;;;;;;5112148;28;20047;-64
2021/03/09 02:28:12;;;;;;;50.55;25.33;;;;;;;;;;5112835;28;20040;-64
2021/03/09 02:30:58;;;;;;;43.03;21.90;;;;;;;;;;5112846;28;20052;-64
2021/03/09 02:33:44;;;;;;;47.92;23.38;;;;;;;;;;5111330;28;20052;-64
2021/03/09 02:36:31;;;;;;;46.05;22.90;;;;;;;;;;5140439;27;20062;-64
2021/03/09 02:39:16;;;;;;;44.63;23.83;;;;;;;;;;5140083;27;20503;-64
2021/03/09 02:42:02;;;;;;;44.10;23.20;;;;;;;;;;5112604;28;20043;-65
2021/03/09 02:44:47;;;;;;;41.30;23.05;;;;;;;;;;5120164;27;20075;-64
2021/03/09 02:47:32;;;;;;;44.35;24.48;;;;;;;;;;5119828;27;20047;-64
2021/03/09 02:50:18;;;;;;;41.47;22.63;;;;;;;;;;5092222;28;20465;-64
2021/03/09 02:53:07;;;;;;;40.17;23.35;;;;;;;;;;5122712;27;20059;-64
2021/03/09 02:55:53;;;;;;;46.10;23.88;;;;;;;;;;5112322;28;20160;-64
2021/03/09 02:58:39;;;;;;;40.10;21.92;;;;;;;;;;5140252;27;20048;-64
2021/03/09 03:01:27;;;;;;;42.47;23.48;;;;;;;;;;5140310;27;20523;-64
2021/03/09 03:04:14;;;;;;;39.50;21.75;;;;;;;;;;5131060;27;20068;-65
2021/03/09 03:07:00;;;;;;;39.70;21.88;;;;;;;;;;5119605;27;20040;-64
2021/03/09 03:09:46;;;;;;;41.47;22.95;;;;;;;;;;5092296;28;20417;-64
2021/03/09 03:12:32;;;;;;;43.72;22.77;;;;;;;;;;5123862;28;20115;-64
2021/03/09 03:15:17;;;;;;;37.22;21.13;;;;;;;;;;5139889;27;20077;-64
2021/03/09 03:18:06;;;;;;;43.65;22.88;;;;;;;;;;5138187;27;20040;-64
2021/03/09 03:20:52;;;;;;;46.63;24.05;;;;;;;;;;5091992;28;20048;-64
2021/03/09 03:23:37;;;;;;;45.97;23.67;;;;;;;;;;5119497;28;20048;-64
2021/03/09 03:26:23;;;;;;;41.95;22.50;;;;;;;;;;5091727;28;20047;-64
2021/03/09 03:29:08;;;;;;;44.70;24.08;;;;;;;;;;5126764;27;20527;-64
2021/03/09 03:31:53;;;;;;;44.50;23.55;;;;;;;;;;5112245;28;20044;-64
2021/03/09 03:34:39;;;;;;;50.60;23.88;;;;;;;;;;5111750;28;20075;-64
2021/03/09 03:37:24;;;;;;;52.40;24.95;;;;;;;;;;5112063;28;20071;-64
2021/03/09 03:40:14;;;;;;;47.15;23.70;;;;;;;;;;5139902;27;20050;-64
2021/03/09 03:42:59;;;;;;;49.20;25.58;;;;;;;;;;5112021;28;20488;-64
2021/03/09 03:45:44;;;;;;;54.13;25.73;;;;;;;;;;5112429;28;20409;-64
2021/03/09 03:48:32;;;;;;;51.40;25.88;;;;;;;;;;5114484;28;20374;-64
2021/03/09 03:51:17;;;;;;;46.47;25.33;;;;;;;;;;5115929;28;20055;-64
2021/03/09 03:54:21;;;;;;;58.25;26.48;;;;;;;;;;5115706;28;20051;-64
2021/03/09 03:57:13;;;;;;;58.80;26.73;;;;;;;;;;5115784;28;20058;-64
2021/03/09 03:59:59;;;;;;;53.95;27.13;;;;;;;;;;5114647;28;20126;-64
2021/03/09 04:02:45;;;;;;;58.08;27.63;;;;;;;;;;5115662;28;20035;-64
2021/03/09 04:05:32;;;;;;;68.03;28.38;;;;;;;;;;5115238;28;20043;-64
2021/03/09 04:08:18;;;;;;;58.00;27.67;;;;;;;;;;5114268;28;20474;-64
2021/03/09 04:11:03;;;;;;;58.05;27.30;;;;;;;;;;5115395;28;20048;-64
2021/03/09 04:13:48;;;;;;;60.15;28.27;;;;;;;;;;5115438;28;20044;-64
2021/03/09 04:16:33;;;;;;;64.25;29.35;;;;;;;;;;5143251;27;20047;-64
2021/03/09 04:19:19;;;;;;;68.55;30.20;;;;;;;;;;5139519;27;20048;-64
2021/03/09 04:22:04;;;;;;;69.78;32.50;;;;;;;;;;5114209;28;20050;-64
2021/03/09 04:24:50;;;;;;;71.57;31.13;;;;;;;;;;5114106;28;20047;-64
2021/03/09 04:27:35;;;;;;;71.15;31.33;;;;;;;;;;5103347;28;20052;-64
2021/03/09 04:30:20;;;;;;;66.45;31.02;;;;;;;;;;5128318;27;20082;-64
2021/03/09 04:33:06;;;;;;;75.90;33.53;;;;;;;;;;5134817;27;20050;-64
2021/03/09 04:35:51;;;;;;;76.90;34.15;;;;;;;;;;5135269;27;20061;-64
2021/03/09 04:38:37;;;;;;;70.25;33.28;;;;;;;;;;5134482;27;20054;-64
2021/03/09 04:41:22;;;;;;;74.53;34.20;;;;;;;;;;5093274;28;20433;-65
2021/03/09 04:44:07;;;;;;;82.43;35.17;;;;;;;;;;5094567;28;20078;-64
2021/03/09 04:46:52;;;;;;;76.57;33.75;;;;;;;;;;5093421;28;20138;-64
2021/03/09 04:49:37;;;;;;;76.22;34.13;;;;;;;;;;5103701;28;20046;-65
2021/03/09 04:52:23;;;;;;;89.53;36.53;;;;;;;;;;5114722;28;20040;-64
2021/03/09 04:55:09;;;;;;;81.25;34.38;;;;;;;;;;5142262;27;20071;-65
2021/03/09 04:57:55;;;;;;;81.05;34.97;;;;;;;;;;5114343;28;20405;-63
2021/03/09 05:00:40;;;;;;;74.70;33.75;;;;;;;;;;5105172;28;20048;-63
2021/03/09 05:03:26;;;;;;;81.10;37.15;;;;;;;;;;5094047;28;20383;-63
2021/03/09 05:06:11;;;;;;;89.10;37.63;;;;;;;;;;5093601;28;20051;-63
2021/03/09 05:08:57;;;;;;;90.95;37.85;;;;;;;;;;5093967;28;20040;-63
2021/03/09 05:11:42;;;;;;;95.50;38.00;;;;;;;;;;5108631;28;20039;-63
2021/03/09 05:14:28;;;;;;;87.03;37.35;;;;;;;;;;5113990;28;20043;-63
2021/03/09 05:17:13;;;;;;;104.57;42.25;;;;;;;;;;5114308;28;20080;-63
2021/03/09 05:19:58;;;;;;;106.97;42.35;;;;;;;;;;5114059;28;20040;-63
2021/03/09 05:22:44;;;;;;;120.28;45.60;;;;;;;;;;5093585;28;20044;-63
2021/03/09 05:25:29;;;;;;;110.72;41.10;;;;;;;;;;5093474;28;20071;-63
2021/03/09 05:28:14;;;;;;;111.22;43.40;;;;;;;;;;5093579;28;20052;-63
2021/03/09 05:31:00;;;;;;;131.15;47.40;;;;;;;;;;5096841;28;20145;-63
2021/03/09 05:33:45;;;;;;;124.38;46.33;;;;;;;;;;5113982;28;20071;-63
2021/03/09 05:36:33;;;;;;;135.98;49.13;;;;;;;;;;5113546;28;20074;-64
2021/03/09 05:39:18;;;;;;;134.93;48.67;;;;;;;;;;5156525;27;20048;-64
2021/03/09 05:42:04;;;;;;;177.23;53.78;;;;;;;;;;5113037;28;20382;-63
2021/03/09 05:44:49;;;;;;;156.20;51.58;;;;;;;;;;5113417;28;20044;-64
2021/03/09 05:47:37;;;;;;;166.27;54.08;;;;;;;;;;5141480;27;20039;-63
2021/03/09 05:50:23;;;;;;;145.38;51.15;;;;;;;;;;5113631;28;20071;-63
2021/03/09 05:53:08;;;;;;;164.20;53.72;;;;;;;;;;5110716;28;20123;-63
2021/03/09 05:55:53;;;;;;;167.45;53.33;;;;;;;;;;5077977;28;20044;-63
2021/03/09 05:58:38;;;;;;;167.68;53.00;;;;;;;;;;5093039;28;20130;-63
2021/03/09 06:01:24;;;;;;;192.75;56.25;;;;;;;;;;5104144;28;20557;-63
2021/03/09 06:04:09;;;;;;;156.18;51.00;;;;;;;;;;5112189;28;20047;-63
2021/03/09 06:06:54;;;;;;;155.45;51.88;;;;;;;;;;5113148;28;20040;-63
2021/03/09 06:09:40;;;;;;;161.38;52.42;;;;;;;;;;5112805;28;20067;-64
2021/03/09 06:12:26;;;;;;;209.57;60.17;;;;;;;;;;5112855;28;20127;-63
2021/03/09 06:15:11;;;;;;;187.77;57.08;;;;;;;;;;5112959;28;20121;-63
2021/03/09 06:17:57;;;;;;;169.45;51.40;;;;;;;;;;5144819;22;20501;-63
2021/03/09 06:20:42;;;;;;;172.20;52.05;;;;;;;;;;5064548;28;20490;-63
2021/03/09 06:23:27;;;;;;;185.10;51.95;;;;;;;;;;5038208;28;20049;-63
2021/03/09 06:26:31;;;;;;;203.73;55.30;;;;;;;;;;5037037;28;20554;-63
2021/03/09 06:29:17;;;;;;;156.25;49.72;;;;;;;;;;5052206;28;20044;-63
2021/03/09 06:32:05;;;;;;;211.50;53.80;;;;;;;;;;5050371;28;20414;-64
2021/03/09 06:34:50;;;;;;;219.10;56.63;;;;;;;;;;5051968;28;20057;-63
2021/03/09 06:37:35;;;;;;;181.18;51.85;;;;;;;;;;5051967;28;21210;-65
2021/03/09 06:40:21;;;;;;;147.35;46.60;;;;;;;;;;5052063;28;20040;-63
2021/03/09 06:43:14;;;;;;;151.65;47.90;;;;;;;;;;5051502;28;20049;-64
2021/03/09 06:46:16;;;;;;;183.98;50.80;;;;;;;;;;5035255;28;20052;-63
2021/03/09 06:49:04;;;;;;;215.35;53.67;;;;;;;;;;5050805;28;20055;-63
2021/03/09 06:51:49;;;;;;;195.57;53.05;;;;;;;;;;5030007;28;20506;-63
2021/03/09 06:54:42;;;;;;;178.25;49.10;;;;;;;;;;5031741;28;20104;-63
2021/03/09 06:57:27;;;;;;;190.05;48.30;;;;;;;;;;5031869;28;20069;-63
2021/03/09 07:00:13;;;;;;;218.27;50.80;;;;;;;;;;5031999;28;20495;-66
2021/03/09 07:02:58;;;;;;;220.38;50.97;;;;;;;;;;5034599;28;20053;-63
2021/03/09 07:05:55;;;;;;;235.02;49.15;;;;;;;;;;5034127;28;20414;-62
2021/03/09 07:08:41;;;;;;;216.40;48.97;;;;;;;;;;5041743;28;20053;-64
2021/03/09 07:11:27;;;;;;;246.98;49.33;;;;;;;;;;5042985;28;20483;-64
2021/03/09 07:14:13;;;;;;;202.05;44.63;;;;;;;;;;5022787;28;20037;-62
2021/03/09 07:16:58;;;;;;;168.70;39.78;;;;;;;;;;5029177;28;20427;-62
2021/03/09 07:19:44;;;;;;;179.45;39.40;;;;;;;;;;5016626;28;20410;-62
2021/03/09 07:22:29;;;;;;;210.20;39.28;;;;;;;;;;5049742;28;20472;-63
2021/03/09 07:25:17;;;;;;;184.93;38.25;;;;;;;;;;5031161;28;20042;-62
2021/03/09 07:28:07;;;;;;;274.60;41.83;;;;;;;;;;5038563;28;20049;-61
2021/03/09 07:30:53;;;;;;;320.35;43.65;;;;;;;;;;5021986;28;20049;-62
2021/03/09 07:33:38;;;;;;;229.05;36.90;;;;;;;;;;5035572;28;20120;-63
2021/03/09 07:36:24;;;;;;;179.70;34.63;;;;;;;;;;5020609;28;20046;-62
2021/03/09 07:39:09;;;;;;;219.50;36.90;;;;;;;;;;5035412;28;20037;-62
2021/03/09 07:41:55;;;;;;;251.85;37.20;;;;;;;;;;5022472;28;21931;-63
2021/03/09 07:44:40;;;;;;;200.82;36.08;;;;;;;;;;5024917;28;20484;-63
2021/03/09 07:47:26;;;;;;;216.57;37.03;;;;;;;;;;5024596;28;20500;-63
2021/03/09 07:50:12;;;;;;;154.23;29.50;;;;;;;;;;5025885;28;20072;-63
2021/03/09 07:53:11;;;;;;;169.50;31.40;;;;;;;;;;5027082;28;20049;-63
2021/03/09 07:56:05;;;;;;;121.65;26.90;;;;;;;;;;5042813;28;20041;-66
2021/03/09 07:58:50;;;;;;;136.00;28.08;;;;;;;;;;5047831;28;20041;-65
2021/03/09 08:01:47;;;;;;;169.65;30.00;;;;;;;;;;5007847;28;20042;-63
2021/03/09 08:04:32;;;;;;;137.35;27.73;;;;;;;;;;5050718;28;20057;-64
2021/03/09 08:07:22;;;;;;;128.75;28.13;;;;;;;;;;5020826;28;20140;-64
2021/03/09 08:10:11;;;;;;;131.52;27.23;;;;;;;;;;5017815;28;20124;-63
2021/03/09 08:12:58;;;;;;;156.00;28.77;;;;;;;;;;5033991;28;20045;-64
2021/03/09 08:15:43;;;;;;;156.57;27.52;;;;;;;;;;5032935;28;20480;-63
2021/03/09 08:18:28;;;;;;;137.82;26.23;;;;;;;;;;5034510;28;20443;-66
2021/03/09 08:21:13;;;;;;;108.25;26.23;;;;;;;;;;5039583;28;20045;-62
2021/03/09 08:23:59;;;;;;;114.88;25.40;;;;;;;;;;5052685;28;20083;-63
2021/03/09 08:26:44;;;;;;;188.30;30.55;;;;;;;;;;5051137;28;20045;-63
2021/03/09 08:29:30;;;;;;;116.75;25.80;;;;;;;;;;5051356;28;20041;-61
2021/03/09 08:32:24;;;;;;;109.35;24.40;;;;;;;;;;5050065;28;20037;-62
2021/03/09 08:35:12;;;;;;;146.27;26.52;;;;;;;;;;5052514;28;20423;-63
2021/03/09 08:37:58;;;;;;;114.80;23.05;;;;;;;;;;5054291;28;20415;-63
2021/03/09 08:41:03;;;;;;;104.95;23.55;;;;;;;;;;5032869;28;20049;-63
2021/03/09 08:44:08;;;;;;;108.13;24.50;;;;;;;;;;5031704;28;20053;-63
2021/03/09 08:46:55;;;;;;;100.72;24.23;;;;;;;;;;5040870;28;20033;-63
2021/03/09 08:49:46;;;;;;;87.63;23.45;;;;;;;;;;5034868;28;20408;-62
2021/03/09 08:52:40;;;;;;;95.95;22.80;;;;;;;;;;5024714;28;20049;-63
2021/03/09 08:55:26;;;;;;;78.80;20.23;;;;;;;;;;5024144;28;20133;-63
2021/03/09 08:58:11;;;;;;;85.70;21.00;;;;;;;;;;5025331;28;20050;-63
2021/03/09 09:00:56;;;;;;;88.95;23.52;;;;;;;;;;5026562;28;20040;-62
2021/03/09 09:03:41;;;;;;;82.50;21.05;;;;;;;;;;5023353;28;20061;-63
2021/03/09 09:06:29;;;;;;;82.65;20.10;;;;;;;;;;5024042;28;20042;-62
2021/03/09 09:09:29;;;;;;;93.43;23.17;;;;;;;;;;5022678;28;20408;-62
2021/03/09 09:12:20;;;;;;;93.70;23.73;;;;;;;;;;5031547;28;20049;-62
2021/03/09 09:15:15;;;;;;;89.70;21.98;;;;;;;;;;5033101;28;20103;-64
2021/03/09 09:18:00;;;;;;;102.88;24.40;;;;;;;;;;5033306;28;20042;-64
2021/03/09 09:20:47;;;;;;;72.88;21.88;;;;;;;;;;5030766;28;20049;-64
2021/03/09 09:23:32;;;;;;;63.80;19.30;;;;;;;;;;5044478;28;20048;-63
2021/03/09 09:26:17;;;;;;;76.47;21.50;;;;;;;;;;5038119;28;20049;-63
2021/03/09 09:29:05;;;;;;;94.50;21.45;;;;;;;;;;5043563;28;20069;-63
2021/03/09 09:32:00;;;;;;;74.93;19.45;;;;;;;;;;5034976;28;20041;-63
2021/03/09 09:34:45;;;;;;;60.08;18.67;;;;;;;;;;5017358;28;20045;-63
2021/03/09 09:37:30;;;;;;;70.82;20.77;;;;;;;;;;5032800;28;20408;-63
2021/03/09 09:40:19;;;;;;;82.95;21.73;;;;;;;;;;5034744;28;20072;-66
2021/03/09 09:43:13;;;;;;;80.20;20.40;;;;;;;;;;5042953;28;20506;-66
2021/03/09 09:45:59;;;;;;;84.65;20.20;;;;;;;;;;5044525;28;20040;-65
2021/03/09 09:48:44;;;;;;;64.47;19.05;;;;;;;;;;5018299;28;20049;-63
2021/03/09 09:51:29;;;;;;;81.53;21.42;;;;;;;;;;5026183;28;20547;-62
2021/03/09 09:54:15;;;;;;;52.85;17.65;;;;;;;;;;5023226;28;20131;-62
2021/03/09 09:57:12;;;;;;;61.88;18.65;;;;;;;;;;5021928;28;20042;-64
2021/03/09 10:00:05;;;;;;;63.20;19.23;;;;;;;;;;5009554;28;20045;-62
2021/03/09 10:03:07;;;;;;;68.82;20.35;;;;;;;;;;5028223;28;20045;-61
2021/03/09 10:05:52;;;;;;;65.60;19.25;;;;;;;;;;5012438;28;20049;-65
2021/03/09 10:08:37;;;;;;;61.20;19.67;;;;;;;;;;5016576;28;20053;-63
2021/03/09 10:11:23;;;;;;;60.08;23.55;;;;;;;;;;5033656;28;20411;-63
2021/03/09 10:14:08;;;;;;;59.63;26.48;;;;;;;;;;5025564;28;20487;-62
2021/03/09 10:16:54;;;;;;;50.20;24.60;;;;;;;;;;5029829;28;20483;-62
2021/03/09 10:19:39;;;;;;;55.47;25.80;;;;;;;;;;5028280;28;20045;-63
2021/03/09 10:22:25;;;;;;;59.22;27.77;;;;;;;;;;5024610;28;20414;-64
2021/03/09 10:25:11;;;;;;;59.35;29.55;;;;;;;;;;5031996;28;20042;-62
2021/03/09 10:28:06;;;;;;;71.65;33.15;;;;;;;;;;5010346;28;20041;-62
2021/03/09 10:30:51;;;;;;;45.42;22.15;;;;;;;;;;5015128;28;20080;-65
2021/03/09 10:33:36;;;;;;;46.42;24.95;;;;;;;;;;5025766;28;20042;-62
2021/03/09 10:36:21;;;;;;;71.35;30.00;;;;;;;;;;5008153;28;20129;-63
2021/03/09 10:39:12;;;;;;;60.72;29.00;;;;;;;;;;5021024;28;20400;-63
2021/03/09 10:41:57;;;;;;;55.92;29.88;;;;;;;;;;5014822;28;20455;-64
2021/03/09 10:44:43;;;;;;;61.50;30.23;;;;;;;;;;5036893;28;20042;-63
2021/03/09 10:47:28;;;;;;;41.33;25.77;;;;;;;;;;5019385;28;20048;-62
2021/03/09 10:50:14;;;;;;;44.53;25.05;;;;;;;;;;5049464;28;20038;-63
2021/03/09 10:52:59;;;;;;;39.22;22.75;;;;;;;;;;5051137;28;20446;-62
2021/03/09 10:55:45;;;;;;;37.38;22.65;;;;;;;;;;5049715;28;20108;-62
2021/03/09 10:58:30;;;;;;;28.95;20.05;;;;;;;;;;5034822;28;20037;-62
2021/03/09 11:01:16;;;;;;;32.88;20.35;;;;;;;;;;5025545;28;20484;-64
2021/03/09 11:04:01;;;;;;;34.97;21.10;;;;;;;;;;5023991;28;20044;-62
2021/03/09 11:06:46;;;;;;;27.83;17.90;;;;;;;;;;5021842;28;20041;-62
2021/03/09 11:09:32;;;;;;;35.20;22.65;;;;;;;;;;5024568;28;20072;-63
2021/03/09 11:12:17;;;;;;;37.45;22.42;;;;;;;;;;5020531;28;20120;-63
2021/03/09 11:15:02;;;;;;;40.88;22.65;;;;;;;;;;5024914;28;20140;-63
2021/03/09 11:17:48;;;;;;;36.45;22.33;;;;;;;;;;5030644;28;20392;-63
2021/03/09 11:20:33;;;;;;;33.55;21.88;;;;;;;;;;5028528;28;20049;-63
2021/03/09 11:23:19;;;;;;;36.85;21.08;;;;;;;;;;5022603;28;20081;-63
2021/03/09 11:26:04;;;;;;;44.38;25.02;;;;;;;;;;5025688;28;20045;-63
2021/03/09 11:28:49;;;;;;;42.08;25.45;;;;;;;;;;5025109;28;20094;-64
2021/03/09 11:31:35;;;;;;;38.40;24.55;;;;;;;;;;5027221;28;20112;-64
2021/03/09 11:34:21;;;;;;;47.33;25.75;;;;;;;;;;5029920;28;20489;-64
2021/03/09 11:37:06;;;;;;;40.90;23.58;;;;;;;;;;5011462;28;20037;-64
2021/03/09 11:39:51;;;;;;;37.35;21.58;;;;;;;;;;5028394;28;20034;-64
2021/03/09 11:42:37;;;;;;;33.78;19.92;;;;;;;;;;5031248;28;20508;-63
2021/03/09 11:45:22;;;;;;;40.25;24.02;;;;;;;;;;5026536;28;20452;-64
2021/03/09 11:48:07;;;;;;;34.38;21.75;;;;;;;;;;5008075;28;20124;-64
2021/03/09 11:50:52;;;;;;;37.80;21.15;;;;;;;;;;5026310;28;20107;-65
2021/03/09 11:53:37;;;;;;;32.17;19.67;;;;;;;;;;5010108;28;20042;-65
2021/03/09 11:56:23;;;;;;;34.65;20.92;;;;;;;;;;5025292;28;20042;-63
2021/03/09 11:59:08;;;;;;;30.17;17.52;;;;;;;;;;5022703;28;20129;-65
2021/03/09 12:01:53;;;;;;;30.13;18.23;;;;;;;;;;5018672;28;20042;-65
2021/03/09 12:04:40;;;;;;;27.58;18.55;;;;;;;;;;5038258;28;20610;-63
2021/03/09 12:07:25;;;;;;;26.98;17.20;;;;;;;;;;5051491;28;20037;-64
2021/03/09 12:10:11;;;;;;;23.70;14.98;;;;;;;;;;5054296;28;20045;-64
2021/03/09 12:12:56;;;;;;;24.45;15.73;;;;;;;;;;5055245;28;20518;-64
2021/03/09 12:15:41;;;;;;;27.60;16.75;;;;;;;;;;5036869;28;20042;-64
2021/03/09 12:18:27;;;;;;;21.88;15.73;;;;;;;;;;5035361;28;20045;-63
2021/03/09 12:21:12;;;;;;;23.75;16.70;;;;;;;;;;5029534;28;20096;-63
2021/03/09 12:23:58;;;;;;;24.65;16.83;;;;;;;;;;5034517;28;20053;-62
2021/03/09 12:26:43;;;;;;;23.20;16.75;;;;;;;;;;5035374;28;20049;-63
2021/03/09 12:29:29;;;;;;;23.73;17.00;;;;;;;;;;5034124;28;20135;-63
2021/03/09 12:32:14;;;;;;;19.40;14.68;;;;;;;;;;5034424;28;20116;-63
2021/03/09 12:34:59;;;;;;;20.25;15.43;;;;;;;;;;5019241;28;20129;-63
2021/03/09 12:37:45;;;;;;;24.27;16.30;;;;;;;;;;5036995;28;20046;-63
2021/03/09 12:40:30;;;;;;;21.30;15.55;;;;;;;;;;5034240;28;20073;-63
2021/03/09 12:43:15;;;;;;;23.10;16.92;;;;;;;;;;5020064;28;20527;-63
2021/03/09 12:46:01;;;;;;;23.98;16.70;;;;;;;;;;5033736;28;20411;-62
2021/03/09 12:48:46;;;;;;;22.42;15.65;;;;;;;;;;5033913;28;20136;-62
2021/03/09 12:51:31;;;;;;;27.10;16.48;;;;;;;;;;5034009;28;20124;-62
2021/03/09 12:54:17;;;;;;;24.98;18.35;;;;;;;;;;5033631;28;20037;-62
2021/03/09 12:57:02;;;;;;;24.27;16.30;;;;;;;;;;5019286;28;20046;-64
2021/03/09 12:59:47;;;;;;;22.52;15.68;;;;;;;;;;5043295;28;20041;-63
2021/03/09 13:02:33;;;;;;;27.20;18.13;;;;;;;;;;5033572;28;20046;-63
2021/03/09 13:05:19;;;;;;;27.15;18.13;;;;;;;;;;5033277;28;20042;-64
2021/03/09 13:08:04;;;;;;;28.13;17.52;;;;;;;;;;5040656;28;20041;-64
2021/03/09 13:10:50;;;;;;;30.27;19.45;;;;;;;;;;5034477;28;20499;-62
2021/03/09 13:13:35;;;;;;;32.03;19.33;;;;;;;;;;5033361;28;20076;-64
2021/03/09 13:16:20;;;;;;;40.35;21.38;;;;;;;;;;5033129;28;20046;-63
2021/03/09 13:19:06;;;;;;;41.35;21.83;;;;;;;;;;5034610;28;20504;-62
2021/03/09 13:21:51;;;;;;;39.13;22.42;;;;;;;;;;5033026;28;20046;-63
2021/03/09 13:24:37;;;;;;;38.65;23.25;;;;;;;;;;5032860;28;20496;-63
2021/03/09 13:27:22;;;;;;;41.05;24.50;;;;;;;;;;5033223;28;20041;-62
2021/03/09 13:30:11;;;;;;;40.58;23.73;;;;;;;;;;5038157;28;20049;-63
2021/03/09 13:32:57;;;;;;;46.05;25.05;;;;;;;;;;5033222;28;20419;-64
2021/03/09 13:35:42;;;;;;;47.28;24.83;;;;;;;;;;5032692;28;20492;-62
2021/03/09 13:38:27;;;;;;;38.80;22.95;;;;;;;;;;5034388;28;20124;-63
2021/03/09 13:41:12;;;;;;;41.00;24.25;;;;;;;;;;5018686;28;20037;-62
2021/03/09 13:43:58;;;;;;;37.65;21.73;;;;;;;;;;5032820;28;20045;-62
2021/03/09 13:46:47;;;;;;;35.53;22.00;;;;;;;;;;5032674;28;20049;-62
2021/03/09 13:49:32;;;;;;;36.47;20.08;;;;;;;;;;5040251;28;20045;-63
2021/03/09 13:52:17;;;;;;;33.33;20.13;;;;;;;;;;5038209;28;20079;-64
2021/03/09 13:55:04;;;;;;;36.78;21.80;;;;;;;;;;5016840;28;20049;-63
2021/03/09 13:57:49;;;;;;;36.40;23.13;;;;;;;;;;5032497;28;20064;-64
2021/03/09 14:00:35;;;;;;;27.42;17.90;;;;;;;;;;5045400;28;20036;-64
2021/03/09 14:03:21;;;;;;;28.95;16.55;;;;;;;;;;5030908;28;20041;-64
2021/03/09 14:06:06;;;;;;;29.90;18.40;;;;;;;;;;5032156;28;20120;-64
2021/03/09 14:08:51;;;;;;;29.05;19.10;;;;;;;;;;5031741;28;20045;-64
2021/03/09 14:11:37;;;;;;;30.42;18.27;;;;;;;;;;5025557;28;20049;-65
2021/03/09 14:14:22;;;;;;;28.63;18.13;;;;;;;;;;5024182;28;20500;-65
2021/03/09 14:17:07;;;;;;;22.10;15.30;;;;;;;;;;5026060;28;20033;-65
2021/03/09 14:19:53;;;;;;;24.10;15.20;;;;;;;;;;5027056;28;20262;-65
2021/03/09 14:22:38;;;;;;;23.33;14.50;;;;;;;;;;5024129;28;20041;-65
2021/03/09 14:25:24;;;;;;;23.48;15.10;;;;;;;;;;5032035;28;20046;-65
2021/03/09 14:28:09;;;;;;;23.48;15.25;;;;;;;;;;5028198;28;20045;-65
2021/03/09 14:30:54;;;;;;;25.02;17.67;;;;;;;;;;5031144;28;20045;-65
2021/03/09 14:33:40;;;;;;;26.65;17.52;;;;;;;;;;5031667;28;20049;-65
2021/03/09 14:36:25;;;;;;;28.75;17.73;;;;;;;;;;5031588;28;20049;-65
2021/03/09 14:39:10;;;;;;;25.60;16.98;;;;;;;;;;5017013;28;20738;-65
2021/03/09 14:41:56;;;;;;;25.70;17.15;;;;;;;;;;5032128;28;20045;-65
2021/03/09 14:44:41;;;;;;;22.55;15.80;;;;;;;;;;5031203;28;20046;-65
2021/03/09 14:47:26;;;;;;;26.50;17.98;;;;;;;;;;5031476;28;20049;-65
2021/03/09 14:50:12;;;;;;;23.63;16.63;;;;;;;;;;5016964;28;20045;-65
2021/03/09 14:52:57;;;;;;;25.02;17.02;;;;;;;;;;5044357;28;20037;-65
2021/03/09 14:55:43;;;;;;;26.20;17.45;;;;;;;;;;5031073;28;20053;-65
2021/03/09 14:58:28;;;;;;;27.35;17.60;;;;;;;;;;5031580;28;20049;-65
2021/03/09 15:01:13;;;;;;;30.33;19.63;;;;;;;;;;5012651;28;20054;-65
2021/03/09 15:03:59;;;;;;;30.27;18.30;;;;;;;;;;5011553;28;20046;-65
2021/03/09 15:06:44;;;;;;;28.25;18.85;;;;;;;;;;5012091;28;20042;-65
2021/03/09 15:09:29;;;;;;;26.48;18.20;;;;;;;;;;5012012;28;20050;-65
2021/03/09 15:12:15;;;;;;;27.38;17.73;;;;;;;;;;5018188;28;20041;-65
2021/03/09 15:15:00;;;;;;;26.90;18.05;;;;;;;;;;5031221;28;20038;-65
2021/03/09 15:17:45;;;;;;;28.95;18.38;;;;;;;;;;5031484;28;20049;-65
2021/03/09 15:20:32;;;;;;;31.35;19.90;;;;;;;;;;5031492;28;20041;-65
2021/03/09 15:23:17;;;;;;;31.55;20.60;;;;;;;;;;5032698;28;20112;-65
2021/03/09 15:26:03;;;;;;;34.35;20.90;;;;;;;;;;5031362;28;20045;-65
2021/03/09 15:28:48;;;;;;;22.83;14.95;;;;;;;;;;5031521;28;20077;-65
2021/03/09 15:31:34;;;;;;;22.08;15.52;;;;;;;;;;5031583;28;20049;-65
2021/03/09 15:34:19;;;;;;;18.40;14.23;;;;;;;;;;5048029;28;20057;-65
2021/03/09 15:37:04;;;;;;;19.85;13.70;;;;;;;;;;5051354;28;20052;-65
2021/03/09 15:39:50;;;;;;;19.30;13.45;;;;;;;;;;5051594;28;20053;-65
2021/03/09 15:42:35;;;;;;;15.93;14.10;;;;;;;;;;5053704;28;20041;-65
2021/03/09 15:45:21;;;;;;;16.65;12.88;;;;;;;;;;5015020;28;20117;-65
2021/03/09 15:48:06;;;;;;;14.27;12.20;;;;;;;;;;5015358;28;20046;-65
2021/03/09 15:50:51;;;;;;;14.20;11.35;;;;;;;;;;5013769;28;20492;-65
2021/03/09 15:53:36;;;;;;;15.40;12.02;;;;;;;;;;5021371;28;20045;-65
2021/03/09 15:56:22;;;;;;;14.35;11.40;;;;;;;;;;5054791;28;20037;-65
2021/03/09 15:59:07;;;;;;;15.82;12.82;;;;;;;;;;5055114;28;20049;-65
2021/03/09 16:01:52;;;;;;;14.95;12.45;;;;;;;;;;5053214;28;20487;-65
2021/03/09 16:04:37;;;;;;;14.45;11.30;;;;;;;;;;5054473;28;20407;-65